Time;durP1;ratioP1;P1;durP2;ratioP2;P2;SDS_P1;SDS_P2;PMS_P1;PMS_P2;Temp;Humidity;BMP_temperature;BMP_pressure;BME280_temperature;BME280_humidity;BME280_pressure;Samples;Min_cycle;Max_cycle;Signal;HPM_P1;HPM_P2
2022/03/27 00:01:03;;;;;;;31.13;19.70;;;;;;;;;;4981827;28;20184;-82
2022/03/27 00:03:29;;;;;;;29.65;19.27;;;;;;;;;;4983105;28;20214;-82
2022/03/27 00:05:55;;;;;;;32.33;18.60;;;;;;;;;;4983107;28;20184;-81
2022/03/27 00:08:21;;;;;;;34.03;19.27;;;;;;;;;;4997830;28;20204;-81
2022/03/27 00:13:31;;;;;;;32.25;18.85;;;;;;;;;;4987630;28;20512;-82
2022/03/27 00:15:57;;;;;;;31.50;18.63;;;;;;;;;;4981322;28;20192;-82
2022/03/27 00:18:23;;;;;;;31.38;17.55;;;;;;;;;;4978052;28;20192;-82
2022/03/27 00:20:49;;;;;;;34.90;20.90;;;;;;;;;;4986618;28;20244;-82
2022/03/27 00:23:15;;;;;;;36.30;21.80;;;;;;;;;;5000211;28;20207;-82
2022/03/27 00:25:43;;;;;;;27.90;17.40;;;;;;;;;;4983135;28;20177;-82
2022/03/27 00:28:09;;;;;;;42.20;21.40;;;;;;;;;;4985798;28;20250;-82
2022/03/27 00:30:35;;;;;;;28.65;17.92;;;;;;;;;;5001886;28;20190;-82
2022/03/27 00:33:01;;;;;;;30.98;18.02;;;;;;;;;;4987408;28;20188;-81
2022/03/27 00:35:27;;;;;;;27.90;18.45;;;;;;;;;;4986641;28;20176;-81
2022/03/27 00:37:54;;;;;;;35.28;18.48;;;;;;;;;;4979292;28;20290;-82
2022/03/27 00:40:20;;;;;;;28.10;18.15;;;;;;;;;;4984901;28;20195;-81
2022/03/27 00:42:46;;;;;;;32.60;16.08;;;;;;;;;;4987024;28;20181;-82
2022/03/27 00:45:12;;;;;;;38.38;21.00;;;;;;;;;;4984968;28;20188;-81
2022/03/27 00:47:38;;;;;;;29.52;17.70;;;;;;;;;;5001372;28;20210;-82
2022/03/27 00:50:04;;;;;;;32.53;19.80;;;;;;;;;;4985915;28;20176;-82
2022/03/27 00:52:30;;;;;;;33.55;18.15;;;;;;;;;;4982013;28;20440;-81
2022/03/27 00:54:56;;;;;;;25.13;16.70;;;;;;;;;;4986283;28;20195;-82
2022/03/27 00:57:23;;;;;;;31.13;18.60;;;;;;;;;;4984033;28;20255;-82
2022/03/27 00:59:49;;;;;;;30.02;19.05;;;;;;;;;;4986177;28;20648;-81
2022/03/27 01:02:15;;;;;;;30.40;17.85;;;;;;;;;;4987517;28;20227;-82
2022/03/27 01:04:44;;;;;;;34.70;18.00;;;;;;;;;;4985390;28;20176;-82
2022/03/27 01:07:13;;;;;;;24.90;16.15;;;;;;;;;;4983093;28;20228;-81
2022/03/27 01:09:40;;;;;;;28.17;16.50;;;;;;;;;;4985578;28;20202;-82
2022/03/27 01:12:14;;;;;;;26.00;16.55;;;;;;;;;;4984926;28;20744;-82
2022/03/27 01:14:40;;;;;;;28.35;16.35;;;;;;;;;;4985323;28;20200;-82
2022/03/27 01:17:08;;;;;;;31.80;17.15;;;;;;;;;;4982428;28;20204;-82
2022/03/27 01:19:35;;;;;;;29.10;18.50;;;;;;;;;;4986280;28;20195;-82
2022/03/27 01:22:01;;;;;;;31.73;16.35;;;;;;;;;;4984483;28;20191;-81
2022/03/27 01:24:27;;;;;;;32.75;18.77;;;;;;;;;;4984759;28;20176;-82
2022/03/27 01:26:53;;;;;;;27.60;15.70;;;;;;;;;;4984411;28;20219;-82
2022/03/27 01:29:19;;;;;;;29.67;17.08;;;;;;;;;;4998875;28;20187;-82
2022/03/27 01:31:47;;;;;;;24.80;15.82;;;;;;;;;;4986696;28;20187;-82
2022/03/27 01:34:13;;;;;;;34.30;15.88;;;;;;;;;;4985175;28;20184;-81
2022/03/27 01:36:40;;;;;;;25.35;16.05;;;;;;;;;;4985749;28;20243;-81
2022/03/27 01:39:10;;;;;;;24.98;15.32;;;;;;;;;;4986035;28;20188;-82
2022/03/27 01:41:37;;;;;;;33.47;16.00;;;;;;;;;;4984762;28;20180;-81
2022/03/27 01:44:04;;;;;;;29.13;17.80;;;;;;;;;;4985314;28;20263;-82
2022/03/27 01:46:31;;;;;;;29.42;17.52;;;;;;;;;;4984734;28;20195;-81
2022/03/27 01:48:57;;;;;;;31.63;17.58;;;;;;;;;;4985611;28;20613;-81
2022/03/27 01:51:24;;;;;;;23.65;14.30;;;;;;;;;;5000138;28;20542;-82
2022/03/27 01:53:50;;;;;;;26.67;16.38;;;;;;;;;;4984329;28;20282;-82
2022/03/27 01:56:16;;;;;;;29.95;15.70;;;;;;;;;;4984637;28;20243;-82
2022/03/27 01:58:42;;;;;;;32.22;17.90;;;;;;;;;;4986441;28;20184;-82
2022/03/27 02:01:08;;;;;;;31.17;16.35;;;;;;;;;;4979937;28;20670;-82
2022/03/27 02:03:35;;;;;;;33.90;16.88;;;;;;;;;;4976460;28;20294;-82
2022/03/27 02:06:05;;;;;;;27.65;16.17;;;;;;;;;;4999732;28;20252;-82
2022/03/27 02:08:31;;;;;;;28.15;17.63;;;;;;;;;;4999804;28;20202;-81
2022/03/27 02:10:57;;;;;;;21.27;13.02;;;;;;;;;;4985198;28;20187;-82
2022/03/27 02:13:23;;;;;;;30.33;16.73;;;;;;;;;;4985147;28;20223;-82
2022/03/27 02:15:49;;;;;;;28.40;16.00;;;;;;;;;;4982018;28;20183;-82
2022/03/27 02:18:17;;;;;;;25.40;15.57;;;;;;;;;;4983545;28;20207;-82
2022/03/27 02:20:44;;;;;;;31.13;17.10;;;;;;;;;;4983659;28;20251;-82
2022/03/27 02:23:11;;;;;;;29.58;14.77;;;;;;;;;;4985798;28;20172;-82
2022/03/27 02:25:37;;;;;;;26.30;14.68;;;;;;;;;;4997009;28;20204;-81
2022/03/27 02:28:03;;;;;;;30.63;16.88;;;;;;;;;;4980833;28;20196;-82
2022/03/27 02:30:29;;;;;;;28.45;14.52;;;;;;;;;;4983602;28;20184;-81
2022/03/27 02:32:56;;;;;;;30.63;17.23;;;;;;;;;;4984219;28;20180;-82
2022/03/27 02:35:22;;;;;;;21.90;13.55;;;;;;;;;;4985090;28;20243;-83
2022/03/27 02:37:48;;;;;;;23.75;15.27;;;;;;;;;;4985330;28;20234;-83
2022/03/27 02:40:14;;;;;;;32.65;15.88;;;;;;;;;;4974859;28;20179;-82
2022/03/27 02:42:40;;;;;;;24.50;15.45;;;;;;;;;;4977101;28;20202;-82
2022/03/27 02:45:06;;;;;;;31.75;17.60;;;;;;;;;;4973878;28;20180;-82
2022/03/27 02:47:33;;;;;;;26.30;15.32;;;;;;;;;;4982797;28;20933;-82
2022/03/27 02:49:59;;;;;;;34.33;16.50;;;;;;;;;;4985778;28;20199;-83
2022/03/27 02:52:25;;;;;;;24.45;15.75;;;;;;;;;;4984159;28;20251;-82
2022/03/27 02:54:51;;;;;;;25.27;15.27;;;;;;;;;;4984448;28;20203;-82
2022/03/27 02:57:17;;;;;;;25.80;14.73;;;;;;;;;;4982720;28;20212;-83
2022/03/27 02:59:44;;;;;;;31.55;16.08;;;;;;;;;;4983871;28;20187;-82
2022/03/27 03:02:10;;;;;;;24.70;15.48;;;;;;;;;;4999589;28;20183;-83
2022/03/27 03:04:36;;;;;;;27.42;15.77;;;;;;;;;;4996102;28;20188;-83
2022/03/27 03:07:02;;;;;;;23.10;14.13;;;;;;;;;;4976454;28;20218;-83
2022/03/27 03:09:28;;;;;;;29.63;16.80;;;;;;;;;;4990018;28;20278;-82
2022/03/27 03:11:54;;;;;;;28.88;16.20;;;;;;;;;;4982281;28;20243;-82
2022/03/27 03:14:20;;;;;;;32.00;15.63;;;;;;;;;;4997259;28;20561;-82
2022/03/27 03:16:47;;;;;;;25.75;16.05;;;;;;;;;;4983025;28;20203;-83
2022/03/27 03:19:13;;;;;;;27.92;16.70;;;;;;;;;;4983797;28;20190;-82
2022/03/27 03:21:42;;;;;;;28.10;16.17;;;;;;;;;;4983116;28;20218;-82
2022/03/27 03:24:09;;;;;;;29.63;16.30;;;;;;;;;;4984575;28;20203;-82
2022/03/27 03:26:35;;;;;;;31.70;16.40;;;;;;;;;;4983767;28;20187;-83
2022/03/27 03:29:01;;;;;;;32.83;17.48;;;;;;;;;;4984124;28;20191;-82
2022/03/27 03:31:28;;;;;;;31.45;16.42;;;;;;;;;;4979081;28;20239;-82
2022/03/27 03:33:54;;;;;;;33.17;15.45;;;;;;;;;;4987922;28;20188;-83
2022/03/27 03:36:20;;;;;;;28.13;16.53;;;;;;;;;;4990192;28;20222;-82
2022/03/27 03:38:46;;;;;;;32.03;16.15;;;;;;;;;;4984020;28;20983;-82
2022/03/27 03:41:12;;;;;;;27.02;16.17;;;;;;;;;;4995966;28;20208;-82
2022/03/27 03:43:38;;;;;;;31.92;17.10;;;;;;;;;;4981948;28;20202;-83
2022/03/27 03:46:04;;;;;;;28.10;15.45;;;;;;;;;;4986002;28;20653;-83
2022/03/27 03:48:32;;;;;;;30.35;15.35;;;;;;;;;;4987713;28;20187;-82
2022/03/27 03:50:58;;;;;;;23.83;14.07;;;;;;;;;;4986737;28;20183;-83
2022/03/27 03:53:26;;;;;;;27.48;16.67;;;;;;;;;;5000948;28;20245;-82
2022/03/27 03:55:52;;;;;;;27.85;14.32;;;;;;;;;;4985062;28;20271;-83
2022/03/27 03:58:18;;;;;;;29.42;14.27;;;;;;;;;;4987122;28;20187;-82
2022/03/27 04:00:46;;;;;;;23.63;15.77;;;;;;;;;;4983201;28;20190;-82
2022/03/27 04:03:13;;;;;;;25.95;14.85;;;;;;;;;;4990927;28;20190;-82
2022/03/27 04:05:39;;;;;;;29.65;15.23;;;;;;;;;;4988481;28;20203;-82
2022/03/27 04:08:05;;;;;;;26.60;14.57;;;;;;;;;;4988405;28;20187;-82
2022/03/27 04:10:31;;;;;;;24.13;15.15;;;;;;;;;;4986640;28;20188;-82
2022/03/27 04:12:57;;;;;;;31.23;14.68;;;;;;;;;;4983671;28;20226;-82
2022/03/27 04:15:24;;;;;;;25.93;14.73;;;;;;;;;;4987010;28;20564;-83
2022/03/27 04:17:51;;;;;;;29.98;15.65;;;;;;;;;;4987319;28;20533;-82
2022/03/27 04:20:17;;;;;;;30.52;15.07;;;;;;;;;;4987474;28;20168;-82
2022/03/27 04:22:44;;;;;;;27.77;15.05;;;;;;;;;;4987705;28;20916;-82
2022/03/27 04:25:11;;;;;;;28.63;15.27;;;;;;;;;;4987097;28;20253;-82
2022/03/27 04:27:37;;;;;;;23.98;14.30;;;;;;;;;;4986042;28;20195;-82
2022/03/27 04:30:03;;;;;;;25.70;13.30;;;;;;;;;;4987185;28;20180;-82
2022/03/27 04:32:30;;;;;;;28.50;14.27;;;;;;;;;;4992198;28;20251;-82
2022/03/27 04:34:56;;;;;;;25.13;14.23;;;;;;;;;;4987081;28;20251;-82
2022/03/27 04:37:22;;;;;;;31.40;15.88;;;;;;;;;;4986774;28;20633;-82
2022/03/27 04:39:48;;;;;;;31.73;17.02;;;;;;;;;;4986829;28;20581;-82
2022/03/27 04:42:14;;;;;;;28.83;14.90;;;;;;;;;;4984381;28;20188;-82
2022/03/27 04:44:40;;;;;;;31.73;16.40;;;;;;;;;;4987435;28;20188;-82
2022/03/27 04:47:06;;;;;;;32.70;15.85;;;;;;;;;;4985743;28;20250;-83
2022/03/27 04:49:32;;;;;;;25.17;16.17;;;;;;;;;;5000999;28;20602;-82
2022/03/27 04:51:58;;;;;;;25.55;14.02;;;;;;;;;;4979574;28;20678;-82
2022/03/27 04:54:25;;;;;;;29.05;15.48;;;;;;;;;;4977470;28;20267;-82
2022/03/27 04:56:51;;;;;;;25.13;13.20;;;;;;;;;;4975041;28;20211;-82
2022/03/27 04:59:17;;;;;;;26.27;14.65;;;;;;;;;;4986123;28;20191;-82
2022/03/27 05:01:43;;;;;;;24.60;14.32;;;;;;;;;;4986578;28;20180;-82
2022/03/27 05:04:10;;;;;;;27.25;15.05;;;;;;;;;;4982226;28;20676;-83
2022/03/27 05:06:36;;;;;;;27.08;15.88;;;;;;;;;;4985762;28;20184;-83
2022/03/27 05:09:02;;;;;;;29.70;15.15;;;;;;;;;;4986948;28;20202;-82
2022/03/27 05:11:28;;;;;;;27.55;15.35;;;;;;;;;;4986242;28;20183;-82
2022/03/27 05:13:55;;;;;;;25.92;13.95;;;;;;;;;;4986450;28;20183;-82
2022/03/27 05:16:21;;;;;;;27.08;14.40;;;;;;;;;;4986447;28;20223;-82
2022/03/27 05:18:48;;;;;;;33.00;15.98;;;;;;;;;;4982078;28;20293;-83
2022/03/27 05:21:14;;;;;;;31.92;15.63;;;;;;;;;;4983973;28;20191;-82
2022/03/27 05:23:40;;;;;;;26.45;15.02;;;;;;;;;;4985400;28;20180;-82
2022/03/27 05:26:07;;;;;;;26.85;14.95;;;;;;;;;;4983186;28;20243;-82
2022/03/27 05:28:33;;;;;;;26.45;13.25;;;;;;;;;;4987448;28;20222;-83
2022/03/27 05:30:59;;;;;;;29.85;16.42;;;;;;;;;;4986935;28;20246;-83
2022/03/27 05:33:25;;;;;;;23.60;13.67;;;;;;;;;;4986405;28;20604;-82
2022/03/27 05:35:51;;;;;;;25.73;15.15;;;;;;;;;;4984375;28;20466;-83
2022/03/27 05:38:17;;;;;;;26.50;13.27;;;;;;;;;;4999273;28;20223;-82
2022/03/27 05:40:43;;;;;;;27.25;15.32;;;;;;;;;;4984926;28;20179;-82
2022/03/27 05:43:09;;;;;;;22.67;13.50;;;;;;;;;;4997272;28;20188;-83
2022/03/27 05:45:35;;;;;;;24.35;14.35;;;;;;;;;;4977541;28;20179;-82
2022/03/27 05:48:02;;;;;;;29.33;15.00;;;;;;;;;;4985754;28;20268;-82
2022/03/27 05:50:28;;;;;;;26.00;13.65;;;;;;;;;;4985123;28;20179;-82
2022/03/27 05:52:54;;;;;;;24.05;13.90;;;;;;;;;;4986259;28;20191;-82
2022/03/27 05:55:21;;;;;;;29.10;15.70;;;;;;;;;;4983036;28;20263;-83
2022/03/27 05:57:47;;;;;;;25.17;14.60;;;;;;;;;;4979438;28;20211;-82
2022/03/27 06:00:15;;;;;;;28.15;16.15;;;;;;;;;;4984295;28;20211;-82
2022/03/27 06:02:41;;;;;;;24.38;15.90;;;;;;;;;;4986076;28;20211;-83
2022/03/27 06:05:08;;;;;;;23.13;15.38;;;;;;;;;;4985537;28;20176;-82
2022/03/27 06:07:41;;;;;;;27.95;15.10;;;;;;;;;;4983362;28;20215;-82
2022/03/27 06:10:07;;;;;;;25.52;16.15;;;;;;;;;;4984778;28;20192;-82
2022/03/27 06:12:33;;;;;;;28.95;14.82;;;;;;;;;;4984586;28;20270;-82
2022/03/27 06:14:59;;;;;;;34.97;15.70;;;;;;;;;;4983978;28;20216;-82
2022/03/27 06:17:26;;;;;;;26.33;14.95;;;;;;;;;;4999086;28;21084;-82
2022/03/27 06:19:52;;;;;;;23.52;14.30;;;;;;;;;;4980016;28;20184;-82
2022/03/27 06:22:18;;;;;;;25.05;14.55;;;;;;;;;;4990277;28;20194;-82
2022/03/27 06:24:44;;;;;;;23.13;14.25;;;;;;;;;;4988000;28;20676;-83
2022/03/27 06:27:10;;;;;;;28.50;14.88;;;;;;;;;;4997162;28;20188;-83
2022/03/27 06:29:36;;;;;;;25.73;14.68;;;;;;;;;;4984692;28;20207;-82
2022/03/27 06:32:02;;;;;;;25.45;14.57;;;;;;;;;;4985679;28;20211;-83
2022/03/27 06:34:29;;;;;;;27.27;17.52;;;;;;;;;;4982859;28;20255;-82
2022/03/27 06:36:55;;;;;;;24.75;15.32;;;;;;;;;;4983459;28;20458;-82
2022/03/27 06:39:21;;;;;;;26.00;16.13;;;;;;;;;;4984515;28;20223;-84
2022/03/27 06:41:47;;;;;;;22.48;14.98;;;;;;;;;;4983314;28;20180;-84
2022/03/27 06:44:13;;;;;;;26.05;14.95;;;;;;;;;;4996939;28;20643;-84
2022/03/27 06:46:39;;;;;;;30.50;14.82;;;;;;;;;;4985003;28;20184;-84
2022/03/27 06:49:05;;;;;;;22.58;14.68;;;;;;;;;;4982367;28;20215;-84
2022/03/27 06:51:31;;;;;;;25.67;15.32;;;;;;;;;;4983464;28;20222;-82
2022/03/27 06:53:58;;;;;;;24.38;15.35;;;;;;;;;;4983629;28;20187;-83
2022/03/27 06:56:25;;;;;;;26.90;16.30;;;;;;;;;;4998584;28;20211;-83
2022/03/27 06:58:51;;;;;;;26.27;15.88;;;;;;;;;;4982600;28;20657;-83
2022/03/27 07:04:02;;;;;;;26.00;16.25;;;;;;;;;;4979638;28;20743;-83
2022/03/27 07:06:28;;;;;;;35.63;17.77;;;;;;;;;;4982653;28;20275;-83
2022/03/27 07:08:54;;;;;;;22.98;14.80;;;;;;;;;;4984630;28;20183;-84
2022/03/27 07:11:21;;;;;;;32.17;15.85;;;;;;;;;;4982229;28;20333;-84
2022/03/27 07:13:49;;;;;;;29.60;16.10;;;;;;;;;;4983143;28;20204;-83
2022/03/27 07:16:16;;;;;;;25.50;15.77;;;;;;;;;;4980094;28;20196;-84
2022/03/27 07:18:42;;;;;;;32.50;16.75;;;;;;;;;;4982725;28;20191;-84
2022/03/27 07:21:08;;;;;;;29.83;15.98;;;;;;;;;;4984059;28;20246;-83
2022/03/27 07:23:34;;;;;;;27.10;16.10;;;;;;;;;;4982223;28;20440;-81
2022/03/27 07:26:00;;;;;;;23.70;14.25;;;;;;;;;;4984436;28;20431;-81
2022/03/27 07:28:30;;;;;;;28.80;16.73;;;;;;;;;;4980065;28;20191;-81
2022/03/27 07:30:58;;;;;;;26.00;17.67;;;;;;;;;;4980297;28;20199;-81
2022/03/27 07:33:24;;;;;;;34.65;19.15;;;;;;;;;;4970637;28;20332;-81
2022/03/27 07:35:50;;;;;;;29.27;17.70;;;;;;;;;;4995782;28;20187;-81
2022/03/27 07:38:16;;;;;;;28.88;17.98;;;;;;;;;;4976241;28;20471;-81
2022/03/27 07:40:43;;;;;;;31.23;18.33;;;;;;;;;;4979539;28;20184;-81
2022/03/27 07:43:09;;;;;;;30.08;16.30;;;;;;;;;;4980608;28;20195;-81
2022/03/27 07:45:36;;;;;;;26.25;16.70;;;;;;;;;;4981396;28;20860;-83
2022/03/27 07:48:02;;;;;;;28.75;16.27;;;;;;;;;;4978264;28;20340;-83
2022/03/27 07:50:30;;;;;;;32.92;15.40;;;;;;;;;;4980718;28;20193;-83
2022/03/27 07:52:56;;;;;;;25.25;14.43;;;;;;;;;;4983610;28;20295;-83
2022/03/27 07:55:24;;;;;;;25.88;15.10;;;;;;;;;;4979016;28;20196;-83
2022/03/27 07:57:50;;;;;;;26.45;16.42;;;;;;;;;;4980236;28;20223;-83
2022/03/27 08:00:16;;;;;;;23.23;14.60;;;;;;;;;;4981820;28;20187;-82
2022/03/27 08:02:43;;;;;;;25.33;16.90;;;;;;;;;;4979381;28;20192;-83
2022/03/27 08:05:09;;;;;;;21.92;14.35;;;;;;;;;;4983324;28;20180;-84
2022/03/27 08:07:35;;;;;;;21.95;14.70;;;;;;;;;;4981790;28;20187;-83
2022/03/27 08:10:01;;;;;;;23.17;14.80;;;;;;;;;;4982436;28;20617;-82
2022/03/27 08:12:28;;;;;;;26.02;15.65;;;;;;;;;;4980891;28;20228;-83
2022/03/27 08:14:54;;;;;;;20.42;14.07;;;;;;;;;;4981971;28;20195;-82
2022/03/27 08:17:22;;;;;;;26.00;16.17;;;;;;;;;;4983577;28;20247;-82
2022/03/27 08:19:49;;;;;;;23.05;15.93;;;;;;;;;;4981987;28;20203;-87
2022/03/27 08:22:15;;;;;;;21.92;14.40;;;;;;;;;;4983057;28;20196;-82
2022/03/27 08:24:41;;;;;;;20.77;14.10;;;;;;;;;;4982675;28;20187;-82
2022/03/27 08:27:08;;;;;;;21.20;14.13;;;;;;;;;;4980769;28;20207;-82
2022/03/27 08:29:40;;;;;;;17.10;12.93;;;;;;;;;;4974642;28;20191;-82
2022/03/27 08:32:07;;;;;;;22.52;13.80;;;;;;;;;;4986324;28;20167;-80
2022/03/27 08:34:35;;;;;;;18.50;13.05;;;;;;;;;;4985280;28;20268;-79
2022/03/27 08:37:02;;;;;;;18.35;12.32;;;;;;;;;;4984278;28;20216;-82
2022/03/27 08:39:28;;;;;;;19.50;12.68;;;;;;;;;;4986565;28;20198;-81
2022/03/27 08:41:55;;;;;;;22.00;12.07;;;;;;;;;;4984639;28;20180;-83
2022/03/27 08:44:22;;;;;;;18.20;11.15;;;;;;;;;;5001115;28;20164;-81
2022/03/27 08:46:50;;;;;;;17.92;12.25;;;;;;;;;;4997907;28;20188;-82
2022/03/27 08:49:30;;;;;;;19.88;14.80;;;;;;;;;;4985103;28;20203;-81
2022/03/27 08:51:57;;;;;;;17.88;12.65;;;;;;;;;;5000340;28;20593;-81
2022/03/27 08:54:24;;;;;;;17.85;12.25;;;;;;;;;;4985684;28;20184;-81
2022/03/27 08:56:56;;;;;;;18.50;12.52;;;;;;;;;;5000478;28;20215;-80
2022/03/27 08:59:23;;;;;;;20.83;13.15;;;;;;;;;;4986356;28;20180;-80
2022/03/27 09:01:49;;;;;;;19.27;13.85;;;;;;;;;;4987097;28;20174;-81
2022/03/27 09:04:15;;;;;;;17.85;12.65;;;;;;;;;;4986278;28;20188;-82
2022/03/27 09:06:41;;;;;;;22.10;12.95;;;;;;;;;;4986929;28;20215;-81
2022/03/27 09:09:07;;;;;;;23.97;15.60;;;;;;;;;;4986555;28;20187;-79
2022/03/27 09:11:34;;;;;;;17.90;11.70;;;;;;;;;;5000932;28;20480;-81
2022/03/27 09:14:01;;;;;;;20.50;13.95;;;;;;;;;;4986243;28;20618;-82
2022/03/27 09:16:27;;;;;;;21.63;13.27;;;;;;;;;;4996897;28;20275;-81
2022/03/27 09:18:55;;;;;;;17.67;12.85;;;;;;;;;;4979167;28;20259;-80
2022/03/27 09:21:26;;;;;;;20.90;13.10;;;;;;;;;;5001544;28;20173;-80
2022/03/27 09:23:53;;;;;;;20.48;12.02;;;;;;;;;;4984776;28;20215;-83
2022/03/27 09:26:20;;;;;;;17.60;12.52;;;;;;;;;;4998763;28;20181;-82
2022/03/27 09:28:52;;;;;;;19.13;12.77;;;;;;;;;;4986800;28;20164;-80
2022/03/27 09:31:19;;;;;;;18.48;12.57;;;;;;;;;;4984658;28;20520;-83
2022/03/27 09:33:57;;;;;;;17.95;12.93;;;;;;;;;;4977763;28;20183;-81
2022/03/27 09:36:27;;;;;;;14.63;11.27;;;;;;;;;;4985974;28;20245;-81
2022/03/27 09:39:03;;;;;;;20.58;12.43;;;;;;;;;;4984545;28;20673;-80
2022/03/27 09:41:31;;;;;;;22.08;13.82;;;;;;;;;;4986134;28;20203;-81
2022/03/27 09:44:05;;;;;;;14.90;12.02;;;;;;;;;;4986854;28;20181;-81
2022/03/27 09:46:47;;;;;;;23.13;14.25;;;;;;;;;;4984766;28;20183;-81
2022/03/27 09:49:14;;;;;;;19.50;12.55;;;;;;;;;;4985555;28;20199;-82
2022/03/27 09:51:52;;;;;;;19.63;12.75;;;;;;;;;;4985953;28;20243;-82
2022/03/27 09:54:18;;;;;;;26.15;14.02;;;;;;;;;;4984532;28;20180;-80
2022/03/27 09:56:45;;;;;;;18.42;13.93;;;;;;;;;;4984067;28;20760;-79
2022/03/27 09:59:30;;;;;;;19.88;13.35;;;;;;;;;;4986543;28;20175;-81
2022/03/27 10:02:15;;;;;;;17.25;12.98;;;;;;;;;;4980146;28;20187;-80
2022/03/27 10:04:55;;;;;;;21.73;13.40;;;;;;;;;;4988939;28;20271;-79
2022/03/27 10:07:23;;;;;;;28.75;13.25;;;;;;;;;;4989066;28;20417;-80
2022/03/27 10:09:51;;;;;;;19.75;12.13;;;;;;;;;;4989242;28;20207;-78
2022/03/27 10:12:17;;;;;;;21.73;13.02;;;;;;;;;;4974020;28;20747;-80
2022/03/27 10:14:44;;;;;;;22.48;14.07;;;;;;;;;;4984902;28;20194;-82
2022/03/27 10:17:10;;;;;;;21.08;12.70;;;;;;;;;;4985610;28;20223;-82
2022/03/27 10:19:44;;;;;;;23.55;13.55;;;;;;;;;;4980971;28;20188;-77
2022/03/27 10:22:12;;;;;;;19.67;11.68;;;;;;;;;;4989160;28;20187;-82
2022/03/27 10:24:39;;;;;;;21.67;13.80;;;;;;;;;;4980197;28;20211;-82
2022/03/27 10:27:05;;;;;;;21.35;14.70;;;;;;;;;;4980914;28;20274;-80
2022/03/27 10:29:32;;;;;;;21.15;14.18;;;;;;;;;;4982614;28;20677;-84
2022/03/27 10:32:00;;;;;;;23.25;12.77;;;;;;;;;;4984001;28;20188;-82
2022/03/27 10:34:26;;;;;;;18.95;13.20;;;;;;;;;;4983787;28;20191;-81
2022/03/27 10:37:00;;;;;;;19.52;12.60;;;;;;;;;;4984831;28;20211;-82
2022/03/27 10:39:37;;;;;;;21.95;13.35;;;;;;;;;;4982633;28;20262;-82
2022/03/27 10:42:09;;;;;;;20.17;12.68;;;;;;;;;;4983683;28;20176;-81
2022/03/27 10:44:39;;;;;;;19.30;12.55;;;;;;;;;;4983808;28;20179;-83
2022/03/27 10:47:11;;;;;;;21.85;12.68;;;;;;;;;;4982925;28;20183;-84
2022/03/27 10:49:37;;;;;;;25.15;14.57;;;;;;;;;;4983501;28;20184;-82
2022/03/27 10:52:06;;;;;;;18.75;11.75;;;;;;;;;;4984746;28;20260;-84
2022/03/27 10:54:33;;;;;;;23.20;13.60;;;;;;;;;;4983401;28;20196;-84
2022/03/27 10:56:59;;;;;;;20.30;12.35;;;;;;;;;;4984332;28;20226;-83
2022/03/27 10:59:26;;;;;;;18.95;12.68;;;;;;;;;;4984567;28;20179;-82
2022/03/27 11:01:56;;;;;;;21.17;12.10;;;;;;;;;;4981947;28;20179;-82
2022/03/27 11:04:25;;;;;;;20.52;13.38;;;;;;;;;;4984163;28;20231;-82
2022/03/27 11:07:13;;;;;;;20.58;12.85;;;;;;;;;;4984503;28;20215;-83
2022/03/27 11:09:39;;;;;;;23.75;12.98;;;;;;;;;;4981055;28;20251;-80
2022/03/27 11:12:06;;;;;;;25.90;13.73;;;;;;;;;;4982433;28;20302;-85
2022/03/27 11:14:59;;;;;;;23.63;13.68;;;;;;;;;;4997484;28;20443;-82
2022/03/27 11:17:31;;;;;;;20.05;14.20;;;;;;;;;;4980745;28;20226;-80
2022/03/27 11:19:57;;;;;;;20.90;13.32;;;;;;;;;;4983162;28;20243;-83
2022/03/27 11:22:47;;;;;;;22.42;14.27;;;;;;;;;;4982071;28;20184;-85
2022/03/27 11:25:29;;;;;;;20.38;13.40;;;;;;;;;;4977664;28;20179;-83
2022/03/27 11:28:08;;;;;;;24.38;14.23;;;;;;;;;;4978284;28;20195;-84
2022/03/27 11:30:35;;;;;;;19.75;12.57;;;;;;;;;;4981750;28;20187;-81
2022/03/27 11:33:35;;;;;;;21.33;14.35;;;;;;;;;;4983286;28;20187;-83
2022/03/27 11:36:10;;;;;;;21.08;12.68;;;;;;;;;;4981113;28;20195;-85
2022/03/27 11:38:37;;;;;;;23.92;14.82;;;;;;;;;;4981697;28;20205;-83
2022/03/27 11:41:22;;;;;;;23.35;15.43;;;;;;;;;;4981631;28;20184;-84
2022/03/27 11:43:50;;;;;;;21.58;14.90;;;;;;;;;;4982163;28;20211;-82
2022/03/27 11:46:21;;;;;;;21.73;13.90;;;;;;;;;;4980998;28;20209;-85
2022/03/27 11:48:57;;;;;;;22.40;14.48;;;;;;;;;;4977298;28;20192;-84
2022/03/27 11:51:24;;;;;;;23.40;14.77;;;;;;;;;;4982071;28;20209;-82
2022/03/27 11:53:51;;;;;;;23.70;14.77;;;;;;;;;;4965346;28;20192;-80
2022/03/27 11:56:17;;;;;;;19.60;13.73;;;;;;;;;;4980889;28;20970;-80
2022/03/27 11:58:43;;;;;;;21.37;16.13;;;;;;;;;;4982427;28;20503;-83
2022/03/27 12:01:10;;;;;;;23.60;15.30;;;;;;;;;;4982753;28;20448;-82
2022/03/27 12:03:37;;;;;;;23.50;16.13;;;;;;;;;;4982795;28;20419;-80
2022/03/27 12:06:04;;;;;;;21.10;15.00;;;;;;;;;;4965980;28;20416;-82
2022/03/27 12:08:37;;;;;;;22.30;15.77;;;;;;;;;;4986160;28;20434;-81
2022/03/27 12:11:07;;;;;;;22.93;15.67;;;;;;;;;;4986209;28;20449;-83
2022/03/27 12:13:37;;;;;;;25.27;17.27;;;;;;;;;;4998922;28;20450;-83
2022/03/27 12:16:03;;;;;;;21.83;15.60;;;;;;;;;;4981207;28;20511;-83
2022/03/27 12:18:30;;;;;;;17.40;13.67;;;;;;;;;;4987008;28;20445;-82
2022/03/27 12:20:56;;;;;;;21.00;15.63;;;;;;;;;;4987715;28;20402;-82
2022/03/27 12:23:30;;;;;;;23.97;14.53;;;;;;;;;;5002838;28;20423;-82
2022/03/27 12:25:57;;;;;;;20.57;16.60;;;;;;;;;;4984513;28;20384;-80
2022/03/27 12:31:25;;;;;;;19.23;15.53;;;;;;;;;;4983469;28;20426;-81
2022/03/27 12:33:52;;;;;;;17.67;14.03;;;;;;;;;;4987049;28;20425;-83
2022/03/27 12:36:18;;;;;;;18.27;14.27;;;;;;;;;;4986846;28;20441;-81
2022/03/27 12:38:45;;;;;;;18.43;14.83;;;;;;;;;;4987375;28;20438;-80
2022/03/27 12:41:11;;;;;;;21.93;15.93;;;;;;;;;;5001957;28;20697;-78
2022/03/27 12:43:55;;;;;;;21.33;16.47;;;;;;;;;;4987269;28;20407;-81
2022/03/27 12:46:22;;;;;;;18.93;14.93;;;;;;;;;;4984989;28;20469;-79
2022/03/27 12:49:01;;;;;;;18.83;14.90;;;;;;;;;;4998632;28;20552;-80
2022/03/27 12:51:27;;;;;;;19.63;14.80;;;;;;;;;;4979128;28;20469;-79
2022/03/27 12:54:01;;;;;;;20.70;16.33;;;;;;;;;;4985389;28;20443;-78
2022/03/27 12:56:27;;;;;;;27.23;23.50;;;;;;;;;;4985003;28;20439;-80
2022/03/27 12:58:53;;;;;;;18.10;14.87;;;;;;;;;;4979414;28;20450;-80
2022/03/27 13:01:23;;;;;;;26.53;19.20;;;;;;;;;;4984902;28;20474;-80
2022/03/27 13:04:01;;;;;;;18.60;16.63;;;;;;;;;;4981084;28;20450;-82
2022/03/27 13:06:35;;;;;;;22.33;16.40;;;;;;;;;;4995176;28;20439;-79
2022/03/27 13:09:03;;;;;;;16.63;14.93;;;;;;;;;;4984200;28;20470;-79
2022/03/27 13:11:29;;;;;;;18.80;14.40;;;;;;;;;;4984836;28;20816;-80
2022/03/27 13:14:00;;;;;;;18.23;14.60;;;;;;;;;;4987004;28;20426;-80
2022/03/27 13:16:27;;;;;;;17.70;15.90;;;;;;;;;;4983341;28;20431;-81
2022/03/27 13:19:00;;;;;;;17.10;15.30;;;;;;;;;;4984059;28;20474;-82
2022/03/27 13:21:26;;;;;;;20.40;15.50;;;;;;;;;;4982640;28;20450;-84
2022/03/27 13:23:52;;;;;;;16.97;15.17;;;;;;;;;;4985564;28;20457;-82
2022/03/27 13:26:18;;;;;;;16.93;15.07;;;;;;;;;;4985521;28;20892;-81
2022/03/27 13:28:44;;;;;;;18.03;15.97;;;;;;;;;;4986346;28;20434;-83
2022/03/27 13:31:11;;;;;;;19.40;17.43;;;;;;;;;;4981954;28;20428;-80
2022/03/27 13:33:37;;;;;;;16.97;15.23;;;;;;;;;;4992809;28;20434;-82
2022/03/27 13:36:03;;;;;;;20.13;17.43;;;;;;;;;;4985569;28;20431;-80
2022/03/27 13:38:29;;;;;;;17.37;15.57;;;;;;;;;;4984465;28;20467;-83
2022/03/27 13:43:40;;;;;;;16.90;14.90;;;;;;;;;;4986478;28;20437;-84
2022/03/27 13:46:06;;;;;;;19.33;15.07;;;;;;;;;;4985368;28;20479;-80
2022/03/27 13:48:32;;;;;;;18.17;16.20;;;;;;;;;;4985642;28;20442;-82
2022/03/27 13:50:58;;;;;;;17.27;13.97;;;;;;;;;;4984659;28;20510;-82
2022/03/27 13:53:24;;;;;;;20.83;16.77;;;;;;;;;;4998774;28;20808;-81
2022/03/27 13:55:50;;;;;;;17.53;14.10;;;;;;;;;;4986119;28;20455;-81
2022/03/27 13:58:16;;;;;;;19.30;15.10;;;;;;;;;;4981173;28;20491;-82
2022/03/27 14:00:42;;;;;;;22.30;15.40;;;;;;;;;;4977681;28;20956;-81
2022/03/27 14:03:08;;;;;;;17.63;14.90;;;;;;;;;;4985808;28;20435;-82
2022/03/27 14:05:34;;;;;;;23.10;15.80;;;;;;;;;;4985366;28;20648;-82
2022/03/27 14:08:01;;;;;;;18.63;14.77;;;;;;;;;;4985956;28;20423;-81
2022/03/27 14:10:27;;;;;;;18.50;14.40;;;;;;;;;;4985266;28;20451;-82
2022/03/27 14:12:54;;;;;;;16.20;14.47;;;;;;;;;;4980353;28;20571;-81
2022/03/27 14:15:20;;;;;;;16.57;14.80;;;;;;;;;;4974642;28;20446;-82
2022/03/27 14:17:48;;;;;;;19.87;14.30;;;;;;;;;;4985134;28;20463;-81
2022/03/27 14:20:15;;;;;;;17.30;14.80;;;;;;;;;;4997638;28;20432;-83
2022/03/27 14:22:41;;;;;;;19.50;16.33;;;;;;;;;;4986108;28;20423;-80
2022/03/27 14:25:07;;;;;;;21.37;16.27;;;;;;;;;;4985400;28;20445;-80
2022/03/27 14:27:33;;;;;;;25.77;16.67;;;;;;;;;;4984623;28;20443;-82
2022/03/27 14:29:59;;;;;;;18.53;14.67;;;;;;;;;;4983101;28;20446;-83